<?xml version='1.0' encoding='UTF-8'?>
<gpx xmlns="http://www.topografix.com/GPX/1/1" creator="www.balnam.be" version="1.1" xmlns:xsi="http://www.w3.org/2001/XMLSchema-instance" xsi:schemaLocation="http://www.topografix.com/GPX/1/1 http://www.topografix.com/GPX/1/1/gpx.xsd">
<trk>
<name>xhfmb9</name>
<cmt>r</cmt>
<desc>Mabompré Chemin n°9 Vellereux</desc>
<link href="https://chemins.be/mabompre/chemin/9"/><trkseg>
<trkpt lat="50.119135" lon="5.706021"><time>2026-05-02T16:08:37Z</time></trkpt>
<trkpt lat="50.114879" lon="5.709554"><time>2026-05-02T16:18:37Z</time></trkpt>
</trkseg></trk>
<trk>
<name>xhfmb9</name>
<cmt>v</cmt>
<desc>Mabompré Chemin n°9 Vellereux</desc>
<link href="https://chemins.be/mabompre/chemin/9"/><trkseg>
<trkpt lat="50.114879" lon="5.709554"><time>2026-05-02T16:18:37Z</time></trkpt>
<trkpt lat="50.113426" lon="5.710493"><time>2026-05-02T16:28:37Z</time></trkpt>
<trkpt lat="50.112917" lon="5.711930"><time>2026-05-02T16:38:37Z</time></trkpt>
<trkpt lat="50.112665" lon="5.712646"><time>2026-05-02T16:48:37Z</time></trkpt>
<trkpt lat="50.111046" lon="5.714477"><time>2026-05-02T16:58:37Z</time></trkpt>
<trkpt lat="50.107266" lon="5.716522"><time>2026-05-02T17:08:37Z</time></trkpt>
</trkseg></trk>
<trk>
<name>xhfmb9</name>
<cmt>r</cmt>
<desc>Mabompré Chemin n°9 Vellereux</desc>
<link href="https://chemins.be/mabompre/chemin/9"/><trkseg>
<trkpt lat="50.107266" lon="5.716522"><time>2026-05-02T17:08:37Z</time></trkpt>
<trkpt lat="50.100878" lon="5.718824"><time>2026-05-02T17:18:37Z</time></trkpt>
</trkseg></trk>
<trk>
<name>xhfmb9</name>
<cmt>v</cmt>
<desc>Mabompré Chemin n°9 Vellereux</desc>
<link href="https://chemins.be/mabompre/chemin/9"/><trkseg>
<trkpt lat="50.100878" lon="5.718824"><time>2026-05-02T17:18:37Z</time></trkpt>
<trkpt lat="50.097549" lon="5.721136"><time>2026-05-02T17:28:37Z</time></trkpt>
</trkseg></trk>
<trk>
<name>xhfmb9</name>
<cmt>r</cmt>
<desc>Mabompré Chemin n°9 Vellereux</desc>
<link href="https://chemins.be/mabompre/chemin/9"/><trkseg>
<trkpt lat="50.097549" lon="5.721136"><time>2026-05-02T17:28:37Z</time></trkpt>
<trkpt lat="50.095373" lon="5.722578"><time>2026-05-02T17:38:37Z</time></trkpt>
</trkseg></trk>
<trk>
<name>xhfmb9</name>
<cmt>d</cmt>
<desc>Mabompré Chemin n°9 Vellereux</desc>
<link href="https://chemins.be/mabompre/chemin/9"/><trkseg>
<trkpt lat="50.095373" lon="5.722578"><time>2026-05-02T17:38:37Z</time></trkpt>
<trkpt lat="50.095311" lon="5.722846"><time>2026-05-02T17:48:37Z</time></trkpt>
<trkpt lat="50.095113" lon="5.722986"><time>2026-05-02T17:58:37Z</time></trkpt>
<trkpt lat="50.094985" lon="5.723619"><time>2026-05-02T18:08:37Z</time></trkpt>
<trkpt lat="50.094664" lon="5.724033"><time>2026-05-02T18:18:37Z</time></trkpt>
<trkpt lat="50.093797" lon="5.724173"><time>2026-05-02T18:28:37Z</time></trkpt>
</trkseg></trk>
<trk>
<name>xhfmb9</name>
<cmt>r</cmt>
<desc>Mabompré Chemin n°9 Vellereux</desc>
<link href="https://chemins.be/mabompre/chemin/9"/><trkseg>
<trkpt lat="50.093797" lon="5.724173"><time>2026-05-02T18:28:37Z</time></trkpt>
<trkpt lat="50.092915" lon="5.726937"><time>2026-05-02T18:38:37Z</time></trkpt>
</trkseg></trk>
<trk>
<name>xhfmb9</name>
<cmt>v</cmt>
<desc>Mabompré Chemin n°9 Vellereux</desc>
<link href="https://chemins.be/mabompre/chemin/9"/><trkseg>
<trkpt lat="50.092915" lon="5.726937"><time>2026-05-02T18:38:37Z</time></trkpt>
<trkpt lat="50.092483" lon="5.728158"><time>2026-05-02T18:48:37Z</time></trkpt>
</trkseg></trk>
<trk>
<name>xhfmb9</name>
<cmt>r</cmt>
<desc>Mabompré Chemin n°9 Vellereux</desc>
<link href="https://chemins.be/mabompre/chemin/9"/><trkseg>
<trkpt lat="50.092483" lon="5.728158"><time>2026-05-02T18:48:37Z</time></trkpt>
<trkpt lat="50.091933" lon="5.729016"><time>2026-05-02T18:58:37Z</time></trkpt>
<trkpt lat="50.091464" lon="5.728902"><time>2026-05-02T19:08:37Z</time></trkpt>
<trkpt lat="50.090831" lon="5.729216"><time>2026-05-02T19:18:37Z</time></trkpt>
</trkseg></trk>
<trk>
<name>xhfmb9</name>
<cmt>v</cmt>
<desc>Mabompré Chemin n°9 Vellereux</desc>
<link href="https://chemins.be/mabompre/chemin/9"/><trkseg>
<trkpt lat="50.090831" lon="5.729216"><time>2026-05-02T19:18:37Z</time></trkpt>
<trkpt lat="50.090652" lon="5.729935"><time>2026-05-02T19:28:37Z</time></trkpt>
<trkpt lat="50.090438" lon="5.731262"><time>2026-05-02T19:38:37Z</time></trkpt>
<trkpt lat="50.088760" lon="5.733130"><time>2026-05-02T19:48:37Z</time></trkpt>
<trkpt lat="50.087878" lon="5.734568"><time>2026-05-02T19:58:37Z</time></trkpt>
</trkseg>
</trk>
</gpx>